sensor_id;sensor_type;location;lat;lon;timestamp;P1;durP1;ratioP1;P2;durP2;ratioP2
359;SDS011;168;48.872;9.226;2022-08-01T00:02:04;3.47;;;3.17;;
359;SDS011;168;48.872;9.226;2022-08-01T00:04:31;3.13;;;2.83;;
359;SDS011;168;48.872;9.226;2022-08-01T00:07:00;4.60;;;3.17;;
359;SDS011;168;48.872;9.226;2022-08-01T00:09:28;3.00;;;2.70;;
359;SDS011;168;48.872;9.226;2022-08-01T00:11:55;3.83;;;3.50;;
359;SDS011;168;48.872;9.226;2022-08-01T00:14:23;3.50;;;3.10;;
359;SDS011;168;48.872;9.226;2022-08-01T00:16:50;3.23;;;3.03;;
359;SDS011;168;48.872;9.226;2022-08-01T00:19:18;3.33;;;3.13;;
359;SDS011;168;48.872;9.226;2022-08-01T00:21:46;3.30;;;3.10;;
359;SDS011;168;48.872;9.226;2022-08-01T00:24:15;4.43;;;3.83;;
359;SDS011;168;48.872;9.226;2022-08-01T00:26:42;3.43;;;3.13;;
359;SDS011;168;48.872;9.226;2022-08-01T00:29:10;3.27;;;3.07;;
359;SDS011;168;48.872;9.226;2022-08-01T00:31:40;3.67;;;3.37;;
359;SDS011;168;48.872;9.226;2022-08-01T00:34:07;3.60;;;3.30;;
359;SDS011;168;48.872;9.226;2022-08-01T00:36:35;3.70;;;3.40;;
359;SDS011;168;48.872;9.226;2022-08-01T00:39:03;3.70;;;3.40;;
359;SDS011;168;48.872;9.226;2022-08-01T00:41:31;3.70;;;3.40;;
359;SDS011;168;48.872;9.226;2022-08-01T00:44:01;2.70;;;2.60;;
359;SDS011;168;48.872;9.226;2022-08-01T00:46:30;6.10;;;3.33;;
359;SDS011;168;48.872;9.226;2022-08-01T00:48:58;3.53;;;3.27;;
359;SDS011;168;48.872;9.226;2022-08-01T00:51:26;3.77;;;3.30;;
359;SDS011;168;48.872;9.226;2022-08-01T00:53:54;4.40;;;3.37;;
359;SDS011;168;48.872;9.226;2022-08-01T00:56:23;2.97;;;2.77;;
359;SDS011;168;48.872;9.226;2022-08-01T00:58:54;4.13;;;3.23;;
359;SDS011;168;48.872;9.226;2022-08-01T01:01:22;3.60;;;3.30;;
359;SDS011;168;48.872;9.226;2022-08-01T01:03:50;5.63;;;3.27;;
359;SDS011;168;48.872;9.226;2022-08-01T01:06:23;3.70;;;3.40;;
359;SDS011;168;48.872;9.226;2022-08-01T01:09:01;3.50;;;3.20;;
359;SDS011;168;48.872;9.226;2022-08-01T01:11:40;3.73;;;3.43;;
359;SDS011;168;48.872;9.226;2022-08-01T01:14:20;8.17;;;3.40;;
359;SDS011;168;48.872;9.226;2022-08-01T01:16:54;3.40;;;3.20;;
359;SDS011;168;48.872;9.226;2022-08-01T01:19:24;3.90;;;3.60;;
359;SDS011;168;48.872;9.226;2022-08-01T01:24:52;3.60;;;3.40;;
359;SDS011;168;48.872;9.226;2022-08-01T01:27:34;3.37;;;3.17;;
359;SDS011;168;48.872;9.226;2022-08-01T01:30:10;3.70;;;3.40;;
359;SDS011;168;48.872;9.226;2022-08-01T01:32:39;3.67;;;3.37;;
359;SDS011;168;48.872;9.226;2022-08-01T01:35:12;3.93;;;3.63;;
359;SDS011;168;48.872;9.226;2022-08-01T01:37:44;3.70;;;3.40;;
359;SDS011;168;48.872;9.226;2022-08-01T01:40:14;3.53;;;3.33;;
359;SDS011;168;48.872;9.226;2022-08-01T01:42:43;3.87;;;3.60;;
359;SDS011;168;48.872;9.226;2022-08-01T01:45:13;3.90;;;3.60;;
359;SDS011;168;48.872;9.226;2022-08-01T01:47:41;3.77;;;3.47;;
359;SDS011;168;48.872;9.226;2022-08-01T01:50:10;3.73;;;3.43;;
359;SDS011;168;48.872;9.226;2022-08-01T01:52:39;4.13;;;3.27;;
359;SDS011;168;48.872;9.226;2022-08-01T01:55:09;3.57;;;3.37;;
359;SDS011;168;48.872;9.226;2022-08-01T01:57:39;3.90;;;3.60;;
359;SDS011;168;48.872;9.226;2022-08-01T02:00:08;4.03;;;3.63;;
359;SDS011;168;48.872;9.226;2022-08-01T02:02:40;4.07;;;3.40;;
359;SDS011;168;48.872;9.226;2022-08-01T02:05:10;3.57;;;3.30;;
359;SDS011;168;48.872;9.226;2022-08-01T02:07:38;4.33;;;4.03;;
359;SDS011;168;48.872;9.226;2022-08-01T02:10:08;3.83;;;3.27;;
359;SDS011;168;48.872;9.226;2022-08-01T02:12:39;3.70;;;3.40;;
359;SDS011;168;48.872;9.226;2022-08-01T02:15:11;3.63;;;3.33;;
359;SDS011;168;48.872;9.226;2022-08-01T02:17:41;4.30;;;3.37;;
359;SDS011;168;48.872;9.226;2022-08-01T02:20:11;3.83;;;3.53;;
359;SDS011;168;48.872;9.226;2022-08-01T02:22:40;3.80;;;3.50;;
359;SDS011;168;48.872;9.226;2022-08-01T02:25:12;4.03;;;3.73;;
359;SDS011;168;48.872;9.226;2022-08-01T02:27:46;3.67;;;3.40;;
359;SDS011;168;48.872;9.226;2022-08-01T02:30:19;3.70;;;3.50;;
359;SDS011;168;48.872;9.226;2022-08-01T02:32:49;3.70;;;3.40;;
359;SDS011;168;48.872;9.226;2022-08-01T02:35:21;3.87;;;3.57;;
359;SDS011;168;48.872;9.226;2022-08-01T02:37:52;3.97;;;3.30;;
359;SDS011;168;48.872;9.226;2022-08-01T02:40:21;4.30;;;3.90;;
359;SDS011;168;48.872;9.226;2022-08-01T02:42:49;4.97;;;3.47;;
359;SDS011;168;48.872;9.226;2022-08-01T02:45:19;4.10;;;3.80;;
359;SDS011;168;48.872;9.226;2022-08-01T02:47:53;3.83;;;3.53;;
359;SDS011;168;48.872;9.226;2022-08-01T02:50:24;3.97;;;3.63;;
359;SDS011;168;48.872;9.226;2022-08-01T02:52:53;4.47;;;3.87;;
359;SDS011;168;48.872;9.226;2022-08-01T02:55:21;3.40;;;3.20;;
359;SDS011;168;48.872;9.226;2022-08-01T02:57:50;4.17;;;3.83;;
359;SDS011;168;48.872;9.226;2022-08-01T03:00:20;3.90;;;3.60;;
359;SDS011;168;48.872;9.226;2022-08-01T03:02:48;4.10;;;3.80;;
359;SDS011;168;48.872;9.226;2022-08-01T03:05:21;4.43;;;4.00;;
359;SDS011;168;48.872;9.226;2022-08-01T03:07:49;3.83;;;3.53;;
359;SDS011;168;48.872;9.226;2022-08-01T03:10:18;4.10;;;3.80;;
359;SDS011;168;48.872;9.226;2022-08-01T03:12:47;4.53;;;4.10;;
359;SDS011;168;48.872;9.226;2022-08-01T03:15:16;4.17;;;3.87;;
359;SDS011;168;48.872;9.226;2022-08-01T03:17:45;5.27;;;4.00;;
359;SDS011;168;48.872;9.226;2022-08-01T03:20:18;4.10;;;3.70;;
359;SDS011;168;48.872;9.226;2022-08-01T03:22:49;5.00;;;3.80;;
359;SDS011;168;48.872;9.226;2022-08-01T03:25:18;4.37;;;4.07;;
359;SDS011;168;48.872;9.226;2022-08-01T03:27:47;4.50;;;4.10;;
359;SDS011;168;48.872;9.226;2022-08-01T03:30:21;3.80;;;3.50;;
359;SDS011;168;48.872;9.226;2022-08-01T03:32:49;3.80;;;3.50;;
359;SDS011;168;48.872;9.226;2022-08-01T03:35:18;4.13;;;3.73;;
359;SDS011;168;48.872;9.226;2022-08-01T03:37:49;3.97;;;3.67;;
359;SDS011;168;48.872;9.226;2022-08-01T03:40:21;3.90;;;3.60;;
359;SDS011;168;48.872;9.226;2022-08-01T03:42:52;4.30;;;4.03;;
359;SDS011;168;48.872;9.226;2022-08-01T03:45:25;4.30;;;4.00;;
359;SDS011;168;48.872;9.226;2022-08-01T03:47:59;4.30;;;4.00;;
359;SDS011;168;48.872;9.226;2022-08-01T03:50:29;3.60;;;3.30;;
359;SDS011;168;48.872;9.226;2022-08-01T03:53:00;3.73;;;3.37;;
359;SDS011;168;48.872;9.226;2022-08-01T03:55:29;4.67;;;3.47;;
359;SDS011;168;48.872;9.226;2022-08-01T03:57:58;3.37;;;3.13;;
359;SDS011;168;48.872;9.226;2022-08-01T04:00:27;3.93;;;3.63;;
359;SDS011;168;48.872;9.226;2022-08-01T04:02:55;4.20;;;3.80;;
359;SDS011;168;48.872;9.226;2022-08-01T04:05:26;3.43;;;3.23;;
359;SDS011;168;48.872;9.226;2022-08-01T04:07:55;3.33;;;3.13;;
359;SDS011;168;48.872;9.226;2022-08-01T04:10:22;4.23;;;3.93;;
359;SDS011;168;48.872;9.226;2022-08-01T04:12:50;5.20;;;3.60;;
359;SDS011;168;48.872;9.226;2022-08-01T04:15:18;3.80;;;3.47;;
359;SDS011;168;48.872;9.226;2022-08-01T04:17:46;3.97;;;3.60;;
359;SDS011;168;48.872;9.226;2022-08-01T04:20:14;4.80;;;3.60;;
359;SDS011;168;48.872;9.226;2022-08-01T04:22:46;3.67;;;3.00;;
359;SDS011;168;48.872;9.226;2022-08-01T04:25:17;3.37;;;3.17;;
359;SDS011;168;48.872;9.226;2022-08-01T04:27:49;3.53;;;3.23;;
359;SDS011;168;48.872;9.226;2022-08-01T04:30:19;4.00;;;3.70;;
359;SDS011;168;48.872;9.226;2022-08-01T04:32:49;3.93;;;3.63;;
359;SDS011;168;48.872;9.226;2022-08-01T04:35:20;3.50;;;3.20;;
359;SDS011;168;48.872;9.226;2022-08-01T04:37:49;3.47;;;3.27;;
359;SDS011;168;48.872;9.226;2022-08-01T04:43:48;3.60;;;3.30;;
359;SDS011;168;48.872;9.226;2022-08-01T04:46:16;3.40;;;3.20;;
359;SDS011;168;48.872;9.226;2022-08-01T04:48:45;3.63;;;3.33;;
359;SDS011;168;48.872;9.226;2022-08-01T04:51:13;3.77;;;3.47;;
359;SDS011;168;48.872;9.226;2022-08-01T04:53:41;4.20;;;3.20;;
359;SDS011;168;48.872;9.226;2022-08-01T04:56:11;4.80;;;3.90;;
359;SDS011;168;48.872;9.226;2022-08-01T04:58:39;3.30;;;3.10;;
359;SDS011;168;48.872;9.226;2022-08-01T05:01:08;3.80;;;3.50;;
359;SDS011;168;48.872;9.226;2022-08-01T05:03:36;3.30;;;3.00;;
359;SDS011;168;48.872;9.226;2022-08-01T05:06:03;3.40;;;3.07;;
359;SDS011;168;48.872;9.226;2022-08-01T05:08:31;5.23;;;3.30;;
359;SDS011;168;48.872;9.226;2022-08-01T05:10:58;3.03;;;2.80;;
359;SDS011;168;48.872;9.226;2022-08-01T05:13:26;3.00;;;2.70;;
359;SDS011;168;48.872;9.226;2022-08-01T05:15:54;2.90;;;2.67;;
359;SDS011;168;48.872;9.226;2022-08-01T05:18:23;3.40;;;3.10;;
359;SDS011;168;48.872;9.226;2022-08-01T05:20:52;3.50;;;3.27;;
359;SDS011;168;48.872;9.226;2022-08-01T05:23:19;3.40;;;3.10;;
359;SDS011;168;48.872;9.226;2022-08-01T05:25:47;2.93;;;2.73;;
359;SDS011;168;48.872;9.226;2022-08-01T05:28:15;3.00;;;2.70;;
359;SDS011;168;48.872;9.226;2022-08-01T05:30:42;3.03;;;2.80;;
359;SDS011;168;48.872;9.226;2022-08-01T05:33:10;3.70;;;2.93;;
359;SDS011;168;48.872;9.226;2022-08-01T05:35:38;3.03;;;2.83;;
359;SDS011;168;48.872;9.226;2022-08-01T05:38:06;2.47;;;2.27;;
359;SDS011;168;48.872;9.226;2022-08-01T05:40:33;2.80;;;2.60;;
359;SDS011;168;48.872;9.226;2022-08-01T05:43:02;3.10;;;2.90;;
359;SDS011;168;48.872;9.226;2022-08-01T05:45:30;2.87;;;2.50;;
359;SDS011;168;48.872;9.226;2022-08-01T05:47:57;2.63;;;2.40;;
359;SDS011;168;48.872;9.226;2022-08-01T05:50:24;2.90;;;2.70;;
359;SDS011;168;48.872;9.226;2022-08-01T05:52:53;3.10;;;2.90;;
359;SDS011;168;48.872;9.226;2022-08-01T05:55:21;3.27;;;3.07;;
359;SDS011;168;48.872;9.226;2022-08-01T05:57:48;5.10;;;2.70;;
359;SDS011;168;48.872;9.226;2022-08-01T06:00:15;2.73;;;2.63;;
359;SDS011;168;48.872;9.226;2022-08-01T06:02:43;3.53;;;3.00;;
359;SDS011;168;48.872;9.226;2022-08-01T06:05:12;2.80;;;2.60;;
359;SDS011;168;48.872;9.226;2022-08-01T06:07:40;3.20;;;2.83;;
359;SDS011;168;48.872;9.226;2022-08-01T06:10:09;2.70;;;2.50;;
359;SDS011;168;48.872;9.226;2022-08-01T06:12:37;3.47;;;2.40;;
359;SDS011;168;48.872;9.226;2022-08-01T06:15:04;2.83;;;2.63;;
359;SDS011;168;48.872;9.226;2022-08-01T06:17:33;3.13;;;2.60;;
359;SDS011;168;48.872;9.226;2022-08-01T06:20:00;4.03;;;2.40;;
359;SDS011;168;48.872;9.226;2022-08-01T06:22:28;3.07;;;2.40;;
359;SDS011;168;48.872;9.226;2022-08-01T06:24:56;2.07;;;1.97;;
359;SDS011;168;48.872;9.226;2022-08-01T06:27:25;2.40;;;2.20;;
359;SDS011;168;48.872;9.226;2022-08-01T06:29:52;3.30;;;2.00;;
359;SDS011;168;48.872;9.226;2022-08-01T06:32:20;2.30;;;2.20;;
359;SDS011;168;48.872;9.226;2022-08-01T06:34:48;2.37;;;2.17;;
359;SDS011;168;48.872;9.226;2022-08-01T06:37:15;3.43;;;2.20;;
359;SDS011;168;48.872;9.226;2022-08-01T06:39:42;2.17;;;2.07;;
359;SDS011;168;48.872;9.226;2022-08-01T06:42:10;1.90;;;1.80;;
359;SDS011;168;48.872;9.226;2022-08-01T06:44:39;2.03;;;1.93;;
359;SDS011;168;48.872;9.226;2022-08-01T06:47:06;2.20;;;2.10;;
359;SDS011;168;48.872;9.226;2022-08-01T06:49:34;1.97;;;1.87;;
359;SDS011;168;48.872;9.226;2022-08-01T06:52:01;1.70;;;1.60;;
359;SDS011;168;48.872;9.226;2022-08-01T06:54:29;3.30;;;2.70;;
359;SDS011;168;48.872;9.226;2022-08-01T06:56:57;2.50;;;2.30;;
359;SDS011;168;48.872;9.226;2022-08-01T06:59:24;2.30;;;2.10;;
359;SDS011;168;48.872;9.226;2022-08-01T07:01:53;8.33;;;2.30;;
359;SDS011;168;48.872;9.226;2022-08-01T07:04:20;3.03;;;2.30;;
359;SDS011;168;48.872;9.226;2022-08-01T07:06:48;2.70;;;2.20;;
359;SDS011;168;48.872;9.226;2022-08-01T07:09:15;2.30;;;2.10;;
359;SDS011;168;48.872;9.226;2022-08-01T07:11:43;2.10;;;2.00;;
359;SDS011;168;48.872;9.226;2022-08-01T07:14:10;2.30;;;2.20;;
359;SDS011;168;48.872;9.226;2022-08-01T07:16:37;2.37;;;2.27;;
359;SDS011;168;48.872;9.226;2022-08-01T07:19:06;2.03;;;1.93;;
359;SDS011;168;48.872;9.226;2022-08-01T07:21:33;2.60;;;2.40;;
359;SDS011;168;48.872;9.226;2022-08-01T07:24:01;2.80;;;2.47;;
359;SDS011;168;48.872;9.226;2022-08-01T07:26:28;2.50;;;2.20;;
359;SDS011;168;48.872;9.226;2022-08-01T07:28:56;2.87;;;2.67;;
359;SDS011;168;48.872;9.226;2022-08-01T07:31:23;3.70;;;2.47;;
359;SDS011;168;48.872;9.226;2022-08-01T07:33:51;2.43;;;2.00;;
359;SDS011;168;48.872;9.226;2022-08-01T07:36:20;2.13;;;1.93;;
359;SDS011;168;48.872;9.226;2022-08-01T07:38:47;4.70;;;2.13;;
359;SDS011;168;48.872;9.226;2022-08-01T07:41:15;3.17;;;1.70;;
359;SDS011;168;48.872;9.226;2022-08-01T07:43:42;3.30;;;2.40;;
359;SDS011;168;48.872;9.226;2022-08-01T07:46:10;2.80;;;2.60;;
359;SDS011;168;48.872;9.226;2022-08-01T07:48:37;2.57;;;2.37;;
359;SDS011;168;48.872;9.226;2022-08-01T07:51:04;1.90;;;1.80;;
359;SDS011;168;48.872;9.226;2022-08-01T07:53:35;2.83;;;2.30;;
359;SDS011;168;48.872;9.226;2022-08-01T07:56:02;2.10;;;2.00;;
359;SDS011;168;48.872;9.226;2022-08-01T07:58:33;4.10;;;2.13;;
359;SDS011;168;48.872;9.226;2022-08-01T08:01:00;2.60;;;2.40;;
359;SDS011;168;48.872;9.226;2022-08-01T08:03:28;4.63;;;2.40;;
359;SDS011;168;48.872;9.226;2022-08-01T08:05:55;2.73;;;2.10;;
359;SDS011;168;48.872;9.226;2022-08-01T08:08:23;2.57;;;2.33;;
359;SDS011;168;48.872;9.226;2022-08-01T08:10:52;2.40;;;2.20;;
359;SDS011;168;48.872;9.226;2022-08-01T08:13:19;2.93;;;2.73;;
359;SDS011;168;48.872;9.226;2022-08-01T08:15:46;3.93;;;2.40;;
359;SDS011;168;48.872;9.226;2022-08-01T08:18:14;2.70;;;2.50;;
359;SDS011;168;48.872;9.226;2022-08-01T08:20:41;3.10;;;2.60;;
359;SDS011;168;48.872;9.226;2022-08-01T08:23:09;2.60;;;2.40;;
359;SDS011;168;48.872;9.226;2022-08-01T08:25:51;2.60;;;2.40;;
359;SDS011;168;48.872;9.226;2022-08-01T08:28:19;2.80;;;2.37;;
359;SDS011;168;48.872;9.226;2022-08-01T08:30:46;2.60;;;2.40;;
359;SDS011;168;48.872;9.226;2022-08-01T08:33:14;3.60;;;2.60;;
359;SDS011;168;48.872;9.226;2022-08-01T08:35:41;2.10;;;1.90;;
359;SDS011;168;48.872;9.226;2022-08-01T08:38:09;2.90;;;1.83;;
359;SDS011;168;48.872;9.226;2022-08-01T08:40:36;2.63;;;2.20;;
359;SDS011;168;48.872;9.226;2022-08-01T08:43:05;2.47;;;2.37;;
359;SDS011;168;48.872;9.226;2022-08-01T08:45:33;2.23;;;2.13;;
359;SDS011;168;48.872;9.226;2022-08-01T08:48:00;3.40;;;2.00;;
359;SDS011;168;48.872;9.226;2022-08-01T08:50:28;2.40;;;2.20;;
359;SDS011;168;48.872;9.226;2022-08-01T08:52:55;3.10;;;2.90;;
359;SDS011;168;48.872;9.226;2022-08-01T08:55:25;2.77;;;2.57;;
359;SDS011;168;48.872;9.226;2022-08-01T08:57:54;2.40;;;2.17;;
359;SDS011;168;48.872;9.226;2022-08-01T09:00:24;3.20;;;2.90;;
359;SDS011;168;48.872;9.226;2022-08-01T09:02:52;2.70;;;2.50;;
359;SDS011;168;48.872;9.226;2022-08-01T09:05:22;2.60;;;2.40;;
359;SDS011;168;48.872;9.226;2022-08-01T09:07:51;2.90;;;2.70;;
359;SDS011;168;48.872;9.226;2022-08-01T09:10:19;2.30;;;2.20;;
359;SDS011;168;48.872;9.226;2022-08-01T09:13:06;2.77;;;2.53;;
359;SDS011;168;48.872;9.226;2022-08-01T09:15:41;3.67;;;2.70;;
359;SDS011;168;48.872;9.226;2022-08-01T09:21:06;3.97;;;3.67;;
359;SDS011;168;48.872;9.226;2022-08-01T09:23:36;4.10;;;3.70;;
359;SDS011;168;48.872;9.226;2022-08-01T09:26:08;3.50;;;3.20;;
359;SDS011;168;48.872;9.226;2022-08-01T09:28:36;5.37;;;4.40;;
359;SDS011;168;48.872;9.226;2022-08-01T09:31:09;4.83;;;4.43;;
359;SDS011;168;48.872;9.226;2022-08-01T09:33:47;4.70;;;4.40;;
359;SDS011;168;48.872;9.226;2022-08-01T09:36:16;5.50;;;5.10;;
359;SDS011;168;48.872;9.226;2022-08-01T09:38:44;5.07;;;4.77;;
359;SDS011;168;48.872;9.226;2022-08-01T09:41:11;5.90;;;4.67;;
359;SDS011;168;48.872;9.226;2022-08-01T09:43:40;5.77;;;5.07;;
359;SDS011;168;48.872;9.226;2022-08-01T09:46:20;5.30;;;4.90;;
359;SDS011;168;48.872;9.226;2022-08-01T09:48:56;4.80;;;4.40;;
359;SDS011;168;48.872;9.226;2022-08-01T09:51:28;6.73;;;4.50;;
359;SDS011;168;48.872;9.226;2022-08-01T09:53:57;5.17;;;4.87;;
359;SDS011;168;48.872;9.226;2022-08-01T09:56:25;5.20;;;4.80;;
359;SDS011;168;48.872;9.226;2022-08-01T09:59:01;4.97;;;4.47;;
359;SDS011;168;48.872;9.226;2022-08-01T10:01:44;4.37;;;3.97;;
359;SDS011;168;48.872;9.226;2022-08-01T10:04:14;4.40;;;4.10;;
359;SDS011;168;48.872;9.226;2022-08-01T10:06:43;4.33;;;3.93;;
359;SDS011;168;48.872;9.226;2022-08-01T10:09:14;4.00;;;3.70;;
359;SDS011;168;48.872;9.226;2022-08-01T10:11:53;4.40;;;4.00;;
359;SDS011;168;48.872;9.226;2022-08-01T10:14:23;3.63;;;3.40;;
359;SDS011;168;48.872;9.226;2022-08-01T10:16:53;3.90;;;3.70;;
359;SDS011;168;48.872;9.226;2022-08-01T10:19:24;3.80;;;3.50;;
359;SDS011;168;48.872;9.226;2022-08-01T10:21:53;3.90;;;3.60;;
359;SDS011;168;48.872;9.226;2022-08-01T10:24:22;3.40;;;3.20;;
359;SDS011;168;48.872;9.226;2022-08-01T10:26:51;4.93;;;3.93;;
359;SDS011;168;48.872;9.226;2022-08-01T10:29:22;3.40;;;3.20;;
359;SDS011;168;48.872;9.226;2022-08-01T10:31:52;3.60;;;3.33;;
359;SDS011;168;48.872;9.226;2022-08-01T10:34:20;3.47;;;3.20;;
359;SDS011;168;48.872;9.226;2022-08-01T10:36:48;3.60;;;3.40;;
359;SDS011;168;48.872;9.226;2022-08-01T10:39:16;3.13;;;2.93;;
359;SDS011;168;48.872;9.226;2022-08-01T10:41:44;3.40;;;3.10;;
359;SDS011;168;48.872;9.226;2022-08-01T10:44:13;2.93;;;2.60;;
359;SDS011;168;48.872;9.226;2022-08-01T10:46:42;10.23;;;3.43;;
359;SDS011;168;48.872;9.226;2022-08-01T10:49:17;3.10;;;2.90;;
359;SDS011;168;48.872;9.226;2022-08-01T10:51:46;2.93;;;2.73;;
359;SDS011;168;48.872;9.226;2022-08-01T10:54:13;3.53;;;3.23;;
359;SDS011;168;48.872;9.226;2022-08-01T10:56:42;3.40;;;3.10;;
359;SDS011;168;48.872;9.226;2022-08-01T10:59:13;3.70;;;3.40;;
359;SDS011;168;48.872;9.226;2022-08-01T11:01:42;3.20;;;3.00;;
359;SDS011;168;48.872;9.226;2022-08-01T11:04:26;3.63;;;3.40;;
359;SDS011;168;48.872;9.226;2022-08-01T11:07:03;3.70;;;3.40;;
359;SDS011;168;48.872;9.226;2022-08-01T11:09:41;3.60;;;3.40;;
359;SDS011;168;48.872;9.226;2022-08-01T11:12:13;3.33;;;3.03;;
359;SDS011;168;48.872;9.226;2022-08-01T11:17:57;3.30;;;3.10;;
359;SDS011;168;48.872;9.226;2022-08-01T11:20:28;3.50;;;3.27;;
359;SDS011;168;48.872;9.226;2022-08-01T11:28:39;3.30;;;3.07;;
359;SDS011;168;48.872;9.226;2022-08-01T11:31:27;3.43;;;3.23;;
359;SDS011;168;48.872;9.226;2022-08-01T11:33:56;3.50;;;3.20;;
359;SDS011;168;48.872;9.226;2022-08-01T11:36:26;3.43;;;3.23;;
359;SDS011;168;48.872;9.226;2022-08-01T11:41:41;4.00;;;3.70;;
359;SDS011;168;48.872;9.226;2022-08-01T11:44:11;3.57;;;3.27;;
359;SDS011;168;48.872;9.226;2022-08-01T11:46:47;3.50;;;3.30;;
359;SDS011;168;48.872;9.226;2022-08-01T11:49:25;3.20;;;3.00;;
359;SDS011;168;48.872;9.226;2022-08-01T11:52:00;3.40;;;3.20;;
359;SDS011;168;48.872;9.226;2022-08-01T11:54:31;4.17;;;3.73;;
359;SDS011;168;48.872;9.226;2022-08-01T11:57:00;3.10;;;2.90;;
359;SDS011;168;48.872;9.226;2022-08-01T11:59:35;3.70;;;3.40;;
359;SDS011;168;48.872;9.226;2022-08-01T12:02:14;3.80;;;3.50;;
359;SDS011;168;48.872;9.226;2022-08-01T12:04:46;3.47;;;3.17;;
359;SDS011;168;48.872;9.226;2022-08-01T12:07:17;4.70;;;3.50;;
359;SDS011;168;48.872;9.226;2022-08-01T12:09:44;3.13;;;2.90;;
359;SDS011;168;48.872;9.226;2022-08-01T12:12:16;3.27;;;3.07;;
359;SDS011;168;48.872;9.226;2022-08-01T12:14:45;3.23;;;3.07;;
359;SDS011;168;48.872;9.226;2022-08-01T12:17:20;3.20;;;3.00;;
359;SDS011;168;48.872;9.226;2022-08-01T12:19:54;2.87;;;2.60;;
359;SDS011;168;48.872;9.226;2022-08-01T12:22:23;3.37;;;3.17;;
359;SDS011;168;48.872;9.226;2022-08-01T12:24:52;3.43;;;3.13;;
359;SDS011;168;48.872;9.226;2022-08-01T12:27:26;3.10;;;2.90;;
359;SDS011;168;48.872;9.226;2022-08-01T12:29:55;3.50;;;3.30;;
359;SDS011;168;48.872;9.226;2022-08-01T12:32:25;3.37;;;3.17;;
359;SDS011;168;48.872;9.226;2022-08-01T12:34:56;3.03;;;2.83;;
359;SDS011;168;48.872;9.226;2022-08-01T12:37:28;3.30;;;3.10;;
359;SDS011;168;48.872;9.226;2022-08-01T12:39:56;3.90;;;3.30;;
359;SDS011;168;48.872;9.226;2022-08-01T12:42:24;3.03;;;2.73;;
359;SDS011;168;48.872;9.226;2022-08-01T12:44:52;3.20;;;3.00;;
359;SDS011;168;48.872;9.226;2022-08-01T12:47:20;2.83;;;2.50;;
359;SDS011;168;48.872;9.226;2022-08-01T12:49:48;3.17;;;2.97;;
359;SDS011;168;48.872;9.226;2022-08-01T12:52:16;4.27;;;2.87;;
359;SDS011;168;48.872;9.226;2022-08-01T12:55:01;2.80;;;2.60;;
359;SDS011;168;48.872;9.226;2022-08-01T12:57:37;3.10;;;2.70;;
359;SDS011;168;48.872;9.226;2022-08-01T13:00:07;3.00;;;2.80;;
359;SDS011;168;48.872;9.226;2022-08-01T13:02:37;3.07;;;2.87;;
359;SDS011;168;48.872;9.226;2022-08-01T13:05:05;3.03;;;2.83;;
359;SDS011;168;48.872;9.226;2022-08-01T13:07:34;4.10;;;3.10;;
359;SDS011;168;48.872;9.226;2022-08-01T13:10:05;2.80;;;2.60;;
359;SDS011;168;48.872;9.226;2022-08-01T13:12:33;3.30;;;3.00;;
359;SDS011;168;48.872;9.226;2022-08-01T13:15:15;3.00;;;2.80;;
359;SDS011;168;48.872;9.226;2022-08-01T13:17:46;3.50;;;2.90;;
359;SDS011;168;48.872;9.226;2022-08-01T13:20:23;3.07;;;2.83;;
359;SDS011;168;48.872;9.226;2022-08-01T13:23:10;2.97;;;2.77;;
359;SDS011;168;48.872;9.226;2022-08-01T13:25:48;3.17;;;2.97;;
359;SDS011;168;48.872;9.226;2022-08-01T13:28:18;2.67;;;2.43;;
359;SDS011;168;48.872;9.226;2022-08-01T13:30:53;3.13;;;2.57;;
359;SDS011;168;48.872;9.226;2022-08-01T13:33:21;2.70;;;2.50;;
359;SDS011;168;48.872;9.226;2022-08-01T13:35:50;2.43;;;2.23;;
359;SDS011;168;48.872;9.226;2022-08-01T13:38:18;2.73;;;2.53;;
359;SDS011;168;48.872;9.226;2022-08-01T13:41:07;2.60;;;2.40;;
359;SDS011;168;48.872;9.226;2022-08-01T13:43:35;3.00;;;2.70;;
359;SDS011;168;48.872;9.226;2022-08-01T13:46:02;2.57;;;2.37;;
359;SDS011;168;48.872;9.226;2022-08-01T13:48:30;2.73;;;2.37;;
359;SDS011;168;48.872;9.226;2022-08-01T13:50:59;3.90;;;2.47;;
359;SDS011;168;48.872;9.226;2022-08-01T13:53:27;2.27;;;2.07;;
359;SDS011;168;48.872;9.226;2022-08-01T13:55:55;2.97;;;2.50;;
359;SDS011;168;48.872;9.226;2022-08-01T13:58:24;2.27;;;2.07;;
359;SDS011;168;48.872;9.226;2022-08-01T14:00:53;2.80;;;2.60;;
359;SDS011;168;48.872;9.226;2022-08-01T14:03:21;2.60;;;2.40;;
359;SDS011;168;48.872;9.226;2022-08-01T14:05:49;3.13;;;2.10;;
359;SDS011;168;48.872;9.226;2022-08-01T14:08:16;2.57;;;2.37;;
359;SDS011;168;48.872;9.226;2022-08-01T14:10:44;2.80;;;2.60;;
359;SDS011;168;48.872;9.226;2022-08-01T14:13:11;2.10;;;2.00;;
359;SDS011;168;48.872;9.226;2022-08-01T14:15:40;2.40;;;2.20;;
359;SDS011;168;48.872;9.226;2022-08-01T14:18:08;2.50;;;2.30;;
359;SDS011;168;48.872;9.226;2022-08-01T14:20:36;2.80;;;2.60;;
359;SDS011;168;48.872;9.226;2022-08-01T14:23:05;2.53;;;2.33;;
359;SDS011;168;48.872;9.226;2022-08-01T14:25:32;2.33;;;2.13;;
359;SDS011;168;48.872;9.226;2022-08-01T14:28:00;4.23;;;2.90;;
359;SDS011;168;48.872;9.226;2022-08-01T14:30:27;2.70;;;2.53;;
359;SDS011;168;48.872;9.226;2022-08-01T14:32:56;2.33;;;2.23;;
359;SDS011;168;48.872;9.226;2022-08-01T14:35:24;2.80;;;2.50;;
359;SDS011;168;48.872;9.226;2022-08-01T14:37:52;2.80;;;2.60;;
359;SDS011;168;48.872;9.226;2022-08-01T14:40:20;3.07;;;2.80;;
359;SDS011;168;48.872;9.226;2022-08-01T14:42:48;2.90;;;2.70;;
359;SDS011;168;48.872;9.226;2022-08-01T14:45:18;2.63;;;2.43;;
359;SDS011;168;48.872;9.226;2022-08-01T14:47:49;2.60;;;2.40;;
359;SDS011;168;48.872;9.226;2022-08-01T14:50:18;3.00;;;2.50;;
359;SDS011;168;48.872;9.226;2022-08-01T14:52:46;2.40;;;2.30;;
359;SDS011;168;48.872;9.226;2022-08-01T14:55:14;4.03;;;2.57;;
359;SDS011;168;48.872;9.226;2022-08-01T14:57:42;2.50;;;2.40;;
359;SDS011;168;48.872;9.226;2022-08-01T15:00:10;2.77;;;2.57;;
359;SDS011;168;48.872;9.226;2022-08-01T15:02:39;2.40;;;2.20;;
359;SDS011;168;48.872;9.226;2022-08-01T15:05:07;2.40;;;2.30;;
359;SDS011;168;48.872;9.226;2022-08-01T15:07:39;2.60;;;2.23;;
359;SDS011;168;48.872;9.226;2022-08-01T15:10:08;2.43;;;2.33;;
359;SDS011;168;48.872;9.226;2022-08-01T15:12:36;2.20;;;2.10;;
359;SDS011;168;48.872;9.226;2022-08-01T15:15:04;2.20;;;2.03;;
359;SDS011;168;48.872;9.226;2022-08-01T15:17:33;2.67;;;2.47;;
359;SDS011;168;48.872;9.226;2022-08-01T15:20:02;2.50;;;2.20;;
359;SDS011;168;48.872;9.226;2022-08-01T15:22:31;2.10;;;2.00;;
359;SDS011;168;48.872;9.226;2022-08-01T15:25:01;2.30;;;2.10;;
359;SDS011;168;48.872;9.226;2022-08-01T15:27:30;2.47;;;2.33;;
359;SDS011;168;48.872;9.226;2022-08-01T15:29:58;2.20;;;2.10;;
359;SDS011;168;48.872;9.226;2022-08-01T15:32:25;2.10;;;2.00;;
359;SDS011;168;48.872;9.226;2022-08-01T15:34:53;2.40;;;2.20;;
359;SDS011;168;48.872;9.226;2022-08-01T15:37:23;2.30;;;2.10;;
359;SDS011;168;48.872;9.226;2022-08-01T15:39:50;1.80;;;1.70;;
359;SDS011;168;48.872;9.226;2022-08-01T15:42:19;2.47;;;2.27;;
359;SDS011;168;48.872;9.226;2022-08-01T15:44:47;2.43;;;2.27;;
359;SDS011;168;48.872;9.226;2022-08-01T15:47:14;1.90;;;1.80;;
359;SDS011;168;48.872;9.226;2022-08-01T15:49:42;2.37;;;2.17;;
359;SDS011;168;48.872;9.226;2022-08-01T15:52:10;1.90;;;1.80;;
359;SDS011;168;48.872;9.226;2022-08-01T15:54:38;1.97;;;1.87;;
359;SDS011;168;48.872;9.226;2022-08-01T15:57:06;2.03;;;1.93;;
359;SDS011;168;48.872;9.226;2022-08-01T15:59:36;1.80;;;1.70;;
359;SDS011;168;48.872;9.226;2022-08-01T16:02:03;1.90;;;1.80;;
359;SDS011;168;48.872;9.226;2022-08-01T16:04:31;1.90;;;1.80;;
359;SDS011;168;48.872;9.226;2022-08-01T16:07:05;2.00;;;1.80;;
359;SDS011;168;48.872;9.226;2022-08-01T16:09:33;2.03;;;1.90;;
359;SDS011;168;48.872;9.226;2022-08-01T16:12:00;2.33;;;2.00;;
359;SDS011;168;48.872;9.226;2022-08-01T16:14:29;2.25;;;1.60;;
359;SDS011;168;48.872;9.226;2022-08-01T16:16:59;1.73;;;1.63;;
359;SDS011;168;48.872;9.226;2022-08-01T16:19:28;2.80;;;1.90;;
359;SDS011;168;48.872;9.226;2022-08-01T16:21:56;1.70;;;1.60;;